createdAt,value
2018-08-23T00:00:05.616Z,99248.14
2018-08-23T00:06:10.233Z,99241.59
2018-08-23T00:12:14.789Z,99244.56
2018-08-23T00:18:19.387Z,99245.64
2018-08-23T00:24:24.724Z,99237.19
2018-08-23T00:30:30.209Z,99232.54
2018-08-23T00:36:36.380Z,99233.27
2018-08-23T00:42:40.985Z,99244.22
2018-08-23T00:48:45.612Z,99246.66
2018-08-23T00:54:50.329Z,99243.75
2018-08-23T01:00:59.900Z,99251.34
2018-08-23T01:07:04.551Z,99247.59
2018-08-23T01:13:09.139Z,99246.02
2018-08-23T01:19:18.944Z,99246.66
2018-08-23T01:25:23.590Z,99242.03
2018-08-23T01:31:30.117Z,99243.12
2018-08-23T01:37:42.185Z,99246.69
2018-08-23T01:43:46.772Z,99235.94
2018-08-23T01:49:51.351Z,99237.95
2018-08-23T01:55:55.922Z,99240.34
2018-08-23T02:02:04.981Z,99241.16
2018-08-23T02:08:09.574Z,99234.95
2018-08-23T02:14:14.169Z,99229.80
2018-08-23T02:20:18.789Z,99221.44
2018-08-23T02:26:23.417Z,99221.02
2018-08-23T02:32:28.011Z,99214.32
2018-08-23T02:38:32.781Z,99219.17
2018-08-23T02:44:37.423Z,99216.46
2018-08-23T02:50:41.986Z,99214.94
2018-08-23T02:56:51.713Z,99206.29
2018-08-23T03:02:56.430Z,99209.16
2018-08-23T03:09:01.023Z,99222.31
2018-08-23T03:15:07.263Z,99212.67
2018-08-23T03:21:11.860Z,99216.87
2018-08-23T03:27:16.437Z,99212.62
2018-08-23T03:33:21.030Z,99208.00
2018-08-23T03:39:25.685Z,99197.51
2018-08-23T03:45:30.306Z,99199.20
2018-08-23T03:51:38.677Z,99199.85
2018-08-23T03:57:48.426Z,99203.38
2018-08-23T04:03:53.708Z,99207.77
2018-08-23T04:09:58.316Z,99214.86
2018-08-23T04:16:03.635Z,99212.66
2018-08-23T04:22:08.257Z,99208.58
2018-08-23T04:28:13.292Z,99211.58
2018-08-23T04:34:17.879Z,99206.81
2018-08-23T04:40:22.514Z,99206.41
2018-08-23T04:46:27.095Z,99210.48
2018-08-23T04:52:31.719Z,99208.74
2018-08-23T04:58:36.301Z,99210.22
2018-08-23T05:04:40.886Z,99207.27
2018-08-23T05:10:45.490Z,99201.73
2018-08-23T05:16:50.064Z,99193.98
2018-08-23T05:22:59.852Z,99190.30
2018-08-23T05:29:05.455Z,99195.13
2018-08-23T05:35:10.046Z,99192.33
2018-08-23T05:41:14.630Z,99190.52
2018-08-23T05:47:19.265Z,99189.19
2018-08-23T05:53:23.874Z,99180.03
2018-08-23T05:59:28.497Z,99181.20
2018-08-23T06:05:33.106Z,99182.83
2018-08-23T06:11:37.729Z,99177.06
2018-08-23T06:17:42.273Z,99175.57
2018-08-23T06:23:54.073Z,99181.77
2018-08-23T06:29:58.657Z,99168.43
2018-08-23T06:36:03.818Z,99168.44
2018-08-23T06:42:08.456Z,99164.92
2018-08-23T06:48:13.081Z,99162.67
2018-08-23T06:54:17.709Z,99167.66
2018-08-23T07:00:26.636Z,99169.27
2018-08-23T07:06:31.463Z,99164.08
2018-08-23T07:12:36.045Z,99159.97
2018-08-23T07:18:40.641Z,99160.88
2018-08-23T07:24:46.457Z,99170.55
2018-08-23T07:30:51.128Z,99161.54
2018-08-23T07:36:55.817Z,99160.78
2018-08-23T07:43:00.448Z,99149.53
2018-08-23T07:49:05.096Z,99151.57
2018-08-23T07:55:09.720Z,99157.55
2018-08-23T08:01:14.299Z,99155.69
2018-08-23T08:07:21.711Z,99152.06
2018-08-23T08:13:26.296Z,99148.14
2018-08-23T08:19:38.149Z,99142.45
2018-08-23T08:25:42.986Z,99137.36
2018-08-23T08:31:47.706Z,99142.78
2018-08-23T08:37:52.440Z,99132.11
2018-08-23T08:43:57.075Z,99124.20
2018-08-23T08:50:02.434Z,99128.72
2018-08-23T08:56:08.059Z,99121.02
2018-08-23T09:02:13.130Z,99119.88
2018-08-23T09:08:18.263Z,99105.45
2018-08-23T09:14:23.415Z,99096.30
2018-08-23T09:20:28.753Z,99094.59
2018-08-23T09:26:38.939Z,99083.15
2018-08-23T09:32:43.941Z,99079.17
2018-08-23T09:38:48.977Z,99075.47
2018-08-23T09:45:11.045Z,99068.11
2018-08-23T09:51:21.368Z,99070.42
2018-08-23T09:57:26.877Z,99065.20
2018-08-23T10:03:37.435Z,99055.76
2018-08-23T10:09:47.330Z,99043.25
2018-08-23T10:15:57.221Z,99042.70
2018-08-23T10:22:07.211Z,99034.50
2018-08-23T10:28:13.466Z,99028.62
2018-08-23T10:34:18.537Z,99012.17
2018-08-23T10:40:23.548Z,99007.73
2018-08-23T10:46:28.469Z,99011.92
2018-08-23T10:52:33.439Z,99009.04
2018-08-23T10:58:38.437Z,99007.85
2018-08-23T11:04:43.473Z,99000.81
2018-08-23T11:10:53.469Z,98995.64
2018-08-23T11:17:03.596Z,98989.10
2018-08-23T11:23:08.708Z,98992.32
2018-08-23T11:29:13.681Z,98978.13
2018-08-23T11:35:18.694Z,98968.24
2018-08-23T11:41:23.470Z,98970.09
2018-08-23T11:47:28.185Z,98956.15
2018-08-23T11:53:33.246Z,98950.03
2018-08-23T11:59:38.069Z,98944.48
2018-08-23T12:05:43.429Z,98951.96
2018-08-23T12:11:48.440Z,98938.56
2018-08-23T12:17:54.329Z,98936.73
2018-08-23T12:23:59.256Z,98938.05
2018-08-23T12:30:06.434Z,98925.61
2018-08-23T12:36:11.218Z,98912.66
2018-08-23T12:42:21.243Z,98914.08
2018-08-23T12:48:26.317Z,98897.19
2018-08-23T12:54:31.299Z,98897.98
2018-08-23T13:00:36.933Z,98898.63
2018-08-23T13:06:41.853Z,98884.78
2018-08-23T13:12:46.882Z,98877.58
2018-08-23T13:18:51.867Z,98874.19
2018-08-23T13:25:01.901Z,98869.44
2018-08-23T13:31:06.707Z,98854.22
2018-08-23T13:37:11.428Z,98853.15
2018-08-23T13:43:16.184Z,98840.31
2018-08-23T13:49:20.901Z,98839.75
2018-08-23T13:55:25.916Z,98837.67
2018-08-23T14:01:30.775Z,98830.09
2018-08-23T14:07:35.414Z,98825.87
2018-08-23T14:13:41.573Z,98829.25
2018-08-23T14:19:47.262Z,98821.55
2018-08-23T14:25:53.300Z,98805.24
2018-08-23T14:31:58.835Z,98802.05
2018-08-23T14:38:03.638Z,98799.63
2018-08-23T14:44:08.813Z,98793.14
2018-08-23T14:50:13.424Z,98777.36
2018-08-23T14:56:23.538Z,98765.80
2018-08-23T15:02:28.592Z,98753.48
2018-08-23T15:08:33.600Z,98756.91
2018-08-23T15:14:38.712Z,98760.64
2018-08-23T15:20:43.628Z,98761.72
2018-08-23T15:26:48.766Z,98761.44
2018-08-23T15:32:53.316Z,98757.02
2018-08-23T15:38:57.966Z,98766.02
2018-08-23T15:45:02.603Z,98771.08
2018-08-23T15:51:07.300Z,98772.99
2018-08-23T15:57:12.167Z,98772.83
2018-08-23T16:03:17.163Z,98767.47
2018-08-23T16:09:22.206Z,98762.80
2018-08-23T16:15:27.560Z,98757.45
2018-08-23T16:21:36.083Z,98758.13
2018-08-23T16:27:41.150Z,98756.25
2018-08-23T16:33:46.127Z,98751.64
2018-08-23T16:39:51.169Z,98743.06
2018-08-23T16:45:56.175Z,98741.89
2018-08-23T16:52:01.168Z,98736.61
2018-08-23T16:58:06.164Z,98738.63
2018-08-23T17:04:11.218Z,98741.63
2018-08-23T17:10:16.271Z,98744.83
2018-08-23T17:16:26.876Z,98742.32
2018-08-23T17:22:31.864Z,98739.11
2018-08-23T17:28:36.995Z,98752.91
2018-08-23T17:34:42.055Z,98768.70
2018-08-23T17:40:47.465Z,98768.03
2018-08-23T17:46:52.499Z,98771.56
2018-08-23T17:52:57.483Z,98768.02
2018-08-23T17:59:02.354Z,98772.33
2018-08-23T18:05:07.378Z,98777.41
2018-08-23T18:11:12.329Z,98773.83
2018-08-23T18:17:17.296Z,98772.88
2018-08-23T18:23:22.085Z,98773.77
2018-08-23T18:29:26.767Z,98776.77
2018-08-23T18:35:31.460Z,98786.41
2018-08-23T18:41:36.434Z,98785.25
2018-08-23T18:47:41.550Z,98790.39
2018-08-23T18:53:46.515Z,98790.55
2018-08-23T18:59:51.532Z,98789.06
2018-08-23T19:05:56.435Z,98795.25
2018-08-23T19:12:01.095Z,98807.98
2018-08-23T19:18:06.095Z,98815.08
2018-08-23T19:24:10.675Z,98807.31
2018-08-23T19:30:15.288Z,98819.16
2018-08-23T19:36:19.900Z,98800.12
2018-08-23T19:42:24.561Z,98808.49
2018-08-23T19:48:29.186Z,98805.50
2018-08-23T19:54:33.800Z,98801.45
2018-08-23T20:00:38.389Z,98806.59
2018-08-23T20:06:42.985Z,98804.72
2018-08-23T20:12:47.562Z,98803.02
2018-08-23T20:18:52.201Z,98811.72
2018-08-23T20:24:56.875Z,98804.47
2018-08-23T20:31:01.438Z,98801.20
2018-08-23T20:37:06.165Z,98807.07
2018-08-23T20:43:10.750Z,98802.13
2018-08-23T20:49:15.345Z,98803.61
2018-08-23T20:55:19.926Z,98807.86
2018-08-23T21:01:24.502Z,98812.36
2018-08-23T21:07:29.082Z,98814.09
2018-08-23T21:13:33.642Z,98815.77
2018-08-23T21:19:38.279Z,98814.87
2018-08-23T21:25:42.864Z,98811.82
2018-08-23T21:31:47.460Z,98822.30
2018-08-23T21:37:52.062Z,98816.19
2018-08-23T21:43:56.676Z,98810.06
2018-08-23T21:50:01.253Z,98814.16
2018-08-23T21:56:05.839Z,98810.73
2018-08-23T22:02:15.694Z,98806.63
2018-08-23T22:08:20.307Z,98792.52
2018-08-23T22:14:24.889Z,98795.50
2018-08-23T22:20:29.513Z,98784.64
2018-08-23T22:26:34.126Z,98781.30
2018-08-23T22:32:38.768Z,98772.57
2018-08-23T22:38:43.400Z,98768.83
2018-08-23T22:44:48.006Z,98774.53
2018-08-23T22:50:52.601Z,98781.77
2018-08-23T22:56:57.253Z,98772.78
2018-08-23T23:03:01.849Z,98768.36
2018-08-23T23:09:11.144Z,98762.83
2018-08-23T23:15:21.140Z,98771.84
2018-08-23T23:21:25.704Z,98765.69
2018-08-23T23:27:30.824Z,98766.02
2018-08-23T23:33:35.430Z,98766.81
2018-08-23T23:39:40.022Z,98781.81
2018-08-23T23:45:44.560Z,98793.23
2018-08-23T23:51:49.123Z,98796.01
2018-08-23T23:57:53.684Z,98781.64
